sensor_id;sensor_type;location;lat;lon;timestamp;pressure;altitude;pressure_sealevel;temperature;humidity
70690;BME280;58267;51.156;17.044;2022-10-17T00:01:10;101108.87;;;16.42;43.41
70690;BME280;58267;51.156;17.044;2022-10-17T00:03:36;101110.94;;;16.21;43.70
70690;BME280;58267;51.156;17.044;2022-10-17T00:06:05;101108.81;;;15.93;44.85
70690;BME280;58267;51.156;17.044;2022-10-17T00:08:26;101107.92;;;15.83;44.67
70690;BME280;58267;51.156;17.044;2022-10-17T00:10:56;101105.75;;;16.10;45.12
70690;BME280;58267;51.156;17.044;2022-10-17T00:13:19;101098.49;;;16.24;44.90
70690;BME280;58267;51.156;17.044;2022-10-17T00:15:44;101101.89;;;15.85;44.73
70690;BME280;58267;51.156;17.044;2022-10-17T00:18:09;101104.94;;;16.09;45.68
70690;BME280;58267;51.156;17.044;2022-10-17T00:20:35;101106.14;;;16.37;44.76
70690;BME280;58267;51.156;17.044;2022-10-17T00:23:00;101108.82;;;16.92;45.03
70690;BME280;58267;51.156;17.044;2022-10-17T00:25:25;101115.87;;;16.72;44.93
70690;BME280;58267;51.156;17.044;2022-10-17T00:27:51;101120.05;;;16.35;44.89
70690;BME280;58267;51.156;17.044;2022-10-17T00:30:16;101122.09;;;16.90;44.78
70690;BME280;58267;51.156;17.044;2022-10-17T00:32:42;101118.36;;;16.71;44.73
70690;BME280;58267;51.156;17.044;2022-10-17T00:35:11;101123.08;;;16.60;44.58
70690;BME280;58267;51.156;17.044;2022-10-17T00:37:37;101120.03;;;16.76;44.44
70690;BME280;58267;51.156;17.044;2022-10-17T00:40:03;101118.86;;;16.80;44.33
70690;BME280;58267;51.156;17.044;2022-10-17T00:42:28;101119.19;;;16.39;44.44
70690;BME280;58267;51.156;17.044;2022-10-17T00:45:00;101125.85;;;16.43;44.39
70690;BME280;58267;51.156;17.044;2022-10-17T00:47:20;101129.73;;;16.50;44.80
70690;BME280;58267;51.156;17.044;2022-10-17T00:49:43;101132.21;;;16.21;45.04
70690;BME280;58267;51.156;17.044;2022-10-17T00:52:12;101133.01;;;16.12;45.27
70690;BME280;58267;51.156;17.044;2022-10-17T00:54:38;101133.73;;;16.29;44.83
70690;BME280;58267;51.156;17.044;2022-10-17T00:57:00;101133.00;;;16.21;44.80
70690;BME280;58267;51.156;17.044;2022-10-17T00:59:25;101135.06;;;16.05;44.14
70690;BME280;58267;51.156;17.044;2022-10-17T01:01:56;101138.95;;;16.05;43.96
70690;BME280;58267;51.156;17.044;2022-10-17T01:04:17;101138.64;;;16.24;44.23
70690;BME280;58267;51.156;17.044;2022-10-17T01:06:42;101133.66;;;16.22;44.24
70690;BME280;58267;51.156;17.044;2022-10-17T01:09:07;101129.03;;;15.78;44.20
70690;BME280;58267;51.156;17.044;2022-10-17T01:11:38;101126.30;;;16.13;43.65
70690;BME280;58267;51.156;17.044;2022-10-17T01:14:04;101127.19;;;16.18;43.57
70690;BME280;58267;51.156;17.044;2022-10-17T01:16:35;101124.25;;;16.24;43.36
70690;BME280;58267;51.156;17.044;2022-10-17T01:18:59;101127.99;;;16.32;44.01
70690;BME280;58267;51.156;17.044;2022-10-17T01:21:24;101130.75;;;16.36;43.50
70690;BME280;58267;51.156;17.044;2022-10-17T01:23:54;101125.83;;;16.00;43.76
70690;BME280;58267;51.156;17.044;2022-10-17T01:26:14;101130.86;;;16.30;43.82
70690;BME280;58267;51.156;17.044;2022-10-17T01:28:49;101132.31;;;16.28;44.12
70690;BME280;58267;51.156;17.044;2022-10-17T01:31:04;101134.32;;;16.41;44.71
70690;BME280;58267;51.156;17.044;2022-10-17T01:33:31;101133.88;;;16.36;45.21
70690;BME280;58267;51.156;17.044;2022-10-17T01:35:53;101134.19;;;16.13;45.10
70690;BME280;58267;51.156;17.044;2022-10-17T01:38:19;101134.74;;;16.16;44.57
70690;BME280;58267;51.156;17.044;2022-10-17T01:40:45;101140.75;;;15.81;43.96
70690;BME280;58267;51.156;17.044;2022-10-17T01:43:08;101144.63;;;15.74;45.27
70690;BME280;58267;51.156;17.044;2022-10-17T01:45:34;101139.89;;;15.81;44.84
70690;BME280;58267;51.156;17.044;2022-10-17T01:47:58;101136.33;;;15.71;44.88
70690;BME280;58267;51.156;17.044;2022-10-17T01:50:24;101131.20;;;15.53;44.56
70690;BME280;58267;51.156;17.044;2022-10-17T01:52:50;101131.07;;;15.64;44.26
70690;BME280;58267;51.156;17.044;2022-10-17T01:55:15;101123.48;;;15.75;44.44
70690;BME280;58267;51.156;17.044;2022-10-17T01:57:40;101121.20;;;15.68;44.81
70690;BME280;58267;51.156;17.044;2022-10-17T02:00:05;101118.17;;;15.63;45.59
70690;BME280;58267;51.156;17.044;2022-10-17T02:02:28;101114.23;;;15.67;45.48
70690;BME280;58267;51.156;17.044;2022-10-17T02:04:56;101114.65;;;15.84;44.97
70690;BME280;58267;51.156;17.044;2022-10-17T02:07:20;101110.89;;;15.93;44.88
70690;BME280;58267;51.156;17.044;2022-10-17T02:09:45;101112.49;;;16.06;45.00
70690;BME280;58267;51.156;17.044;2022-10-17T02:12:24;101106.43;;;15.86;44.84
70690;BME280;58267;51.156;17.044;2022-10-17T02:14:43;101107.34;;;16.00;44.92
70690;BME280;58267;51.156;17.044;2022-10-17T02:17:08;101111.02;;;16.12;44.94
70690;BME280;58267;51.156;17.044;2022-10-17T02:19:35;101113.13;;;16.30;45.02
70690;BME280;58267;51.156;17.044;2022-10-17T02:21:59;101117.76;;;15.83;45.32
70690;BME280;58267;51.156;17.044;2022-10-17T02:24:24;101122.35;;;15.98;45.22
70690;BME280;58267;51.156;17.044;2022-10-17T02:26:49;101126.75;;;16.48;44.52
70690;BME280;58267;51.156;17.044;2022-10-17T02:29:14;101132.84;;;16.37;44.92
70690;BME280;58267;51.156;17.044;2022-10-17T02:31:38;101137.07;;;15.96;45.31
70690;BME280;58267;51.156;17.044;2022-10-17T02:34:02;101141.17;;;16.11;45.30
70690;BME280;58267;51.156;17.044;2022-10-17T02:36:29;101146.33;;;16.08;45.27
70690;BME280;58267;51.156;17.044;2022-10-17T02:38:53;101149.86;;;15.72;45.63
70690;BME280;58267;51.156;17.044;2022-10-17T02:41:18;101153.07;;;15.91;45.77
70690;BME280;58267;51.156;17.044;2022-10-17T02:43:43;101157.59;;;15.90;45.79
70690;BME280;58267;51.156;17.044;2022-10-17T02:46:08;101159.07;;;15.91;45.64
70690;BME280;58267;51.156;17.044;2022-10-17T02:48:37;101159.01;;;15.82;45.27
70690;BME280;58267;51.156;17.044;2022-10-17T02:51:03;101146.61;;;15.70;44.69
70690;BME280;58267;51.156;17.044;2022-10-17T02:53:29;101143.41;;;15.29;44.27
70690;BME280;58267;51.156;17.044;2022-10-17T02:55:55;101149.44;;;15.44;44.21
70690;BME280;58267;51.156;17.044;2022-10-17T02:58:18;101161.51;;;15.37;44.38
70690;BME280;58267;51.156;17.044;2022-10-17T03:00:41;101166.46;;;15.35;44.71
70690;BME280;58267;51.156;17.044;2022-10-17T03:05:30;101166.73;;;15.35;45.10
70690;BME280;58267;51.156;17.044;2022-10-17T03:07:56;101168.04;;;15.34;45.27
70690;BME280;58267;51.156;17.044;2022-10-17T03:10:22;101168.50;;;15.29;45.27
70690;BME280;58267;51.156;17.044;2022-10-17T03:12:48;101165.31;;;15.27;45.16
70690;BME280;58267;51.156;17.044;2022-10-17T03:15:13;101167.76;;;15.12;45.33
70690;BME280;58267;51.156;17.044;2022-10-17T03:17:38;101160.87;;;15.26;46.20
70690;BME280;58267;51.156;17.044;2022-10-17T03:20:06;101157.27;;;15.00;46.04
70690;BME280;58267;51.156;17.044;2022-10-17T03:22:30;101153.17;;;15.24;45.74
70690;BME280;58267;51.156;17.044;2022-10-17T03:24:55;101154.91;;;15.25;46.27
70690;BME280;58267;51.156;17.044;2022-10-17T03:27:20;101158.05;;;15.12;46.04
70690;BME280;58267;51.156;17.044;2022-10-17T03:29:46;101163.94;;;15.29;45.41
70690;BME280;58267;51.156;17.044;2022-10-17T03:32:11;101167.17;;;15.71;45.56
70690;BME280;58267;51.156;17.044;2022-10-17T03:34:36;101174.58;;;15.49;45.36
70690;BME280;58267;51.156;17.044;2022-10-17T03:37:02;101172.33;;;15.50;45.79
70690;BME280;58267;51.156;17.044;2022-10-17T03:39:27;101172.84;;;15.58;45.42
70690;BME280;58267;51.156;17.044;2022-10-17T03:41:53;101174.48;;;15.31;45.31
70690;BME280;58267;51.156;17.044;2022-10-17T03:44:18;101176.26;;;15.48;45.30
70690;BME280;58267;51.156;17.044;2022-10-17T03:46:44;101178.86;;;15.31;45.88
70690;BME280;58267;51.156;17.044;2022-10-17T03:49:09;101180.61;;;15.43;45.95
70690;BME280;58267;51.156;17.044;2022-10-17T03:51:34;101178.87;;;15.18;45.38
70690;BME280;58267;51.156;17.044;2022-10-17T03:54:00;101182.57;;;15.33;45.00
70690;BME280;58267;51.156;17.044;2022-10-17T03:56:25;101183.70;;;15.40;44.91
70690;BME280;58267;51.156;17.044;2022-10-17T03:58:50;101185.47;;;15.36;45.10
70690;BME280;58267;51.156;17.044;2022-10-17T04:01:17;101190.01;;;15.29;44.96
70690;BME280;58267;51.156;17.044;2022-10-17T04:03:42;101194.26;;;15.16;45.12
70690;BME280;58267;51.156;17.044;2022-10-17T04:06:09;101192.09;;;15.13;45.46
70690;BME280;58267;51.156;17.044;2022-10-17T04:08:33;101190.06;;;15.52;45.48
70690;BME280;58267;51.156;17.044;2022-10-17T04:10:58;101187.50;;;15.00;45.21
70690;BME280;58267;51.156;17.044;2022-10-17T04:13:24;101187.09;;;14.89;44.99
70690;BME280;58267;51.156;17.044;2022-10-17T04:15:54;101189.20;;;14.91;45.14
70690;BME280;58267;51.156;17.044;2022-10-17T04:18:16;101192.88;;;15.45;45.07
70690;BME280;58267;51.156;17.044;2022-10-17T04:20:41;101194.89;;;15.34;45.10
70690;BME280;58267;51.156;17.044;2022-10-17T04:23:06;101194.67;;;15.25;44.89
70690;BME280;58267;51.156;17.044;2022-10-17T04:25:32;101194.08;;;15.22;44.90
70690;BME280;58267;51.156;17.044;2022-10-17T04:27:57;101192.92;;;15.13;45.05
70690;BME280;58267;51.156;17.044;2022-10-17T04:30:22;101190.04;;;15.44;44.77
70690;BME280;58267;51.156;17.044;2022-10-17T04:32:48;101188.38;;;14.97;45.27
70690;BME280;58267;51.156;17.044;2022-10-17T04:35:13;101191.85;;;14.72;44.99
70690;BME280;58267;51.156;17.044;2022-10-17T04:37:39;101194.04;;;15.39;45.35
70690;BME280;58267;51.156;17.044;2022-10-17T04:40:04;101200.52;;;15.21;45.06
70690;BME280;58267;51.156;17.044;2022-10-17T04:42:29;101199.43;;;15.40;45.07
70690;BME280;58267;51.156;17.044;2022-10-17T04:44:55;101198.08;;;15.42;44.77
70690;BME280;58267;51.156;17.044;2022-10-17T04:47:20;101195.07;;;14.84;44.77
70690;BME280;58267;51.156;17.044;2022-10-17T04:49:45;101191.66;;;15.38;44.68
70690;BME280;58267;51.156;17.044;2022-10-17T04:52:10;101192.40;;;15.12;44.78
70690;BME280;58267;51.156;17.044;2022-10-17T04:54:36;101193.98;;;15.03;45.08
70690;BME280;58267;51.156;17.044;2022-10-17T04:57:02;101195.37;;;14.83;45.36
70690;BME280;58267;51.156;17.044;2022-10-17T04:59:28;101192.77;;;15.17;44.80
70690;BME280;58267;51.156;17.044;2022-10-17T05:01:53;101196.91;;;14.72;44.69
70690;BME280;58267;51.156;17.044;2022-10-17T05:04:18;101197.10;;;15.24;44.98
70690;BME280;58267;51.156;17.044;2022-10-17T05:06:43;101198.49;;;15.32;44.90
70690;BME280;58267;51.156;17.044;2022-10-17T05:09:09;101204.01;;;14.78;44.83
70690;BME280;58267;51.156;17.044;2022-10-17T05:11:34;101205.41;;;15.00;45.26
70690;BME280;58267;51.156;17.044;2022-10-17T05:14:01;101206.49;;;14.56;45.55
70690;BME280;58267;51.156;17.044;2022-10-17T05:16:26;101207.07;;;14.68;44.86
70690;BME280;58267;51.156;17.044;2022-10-17T05:18:52;101212.84;;;15.11;44.76
70690;BME280;58267;51.156;17.044;2022-10-17T05:21:17;101217.42;;;15.18;44.92
70690;BME280;58267;51.156;17.044;2022-10-17T05:23:42;101217.46;;;15.14;44.51
70690;BME280;58267;51.156;17.044;2022-10-17T05:26:07;101220.11;;;15.18;44.34
70690;BME280;58267;51.156;17.044;2022-10-17T05:28:33;101225.81;;;14.56;44.48
70690;BME280;58267;51.156;17.044;2022-10-17T05:31:02;101226.35;;;14.71;44.42
70690;BME280;58267;51.156;17.044;2022-10-17T05:33:23;101233.84;;;14.42;44.65
70690;BME280;58267;51.156;17.044;2022-10-17T05:35:48;101239.59;;;14.74;45.07
70690;BME280;58267;51.156;17.044;2022-10-17T05:38:14;101240.08;;;14.66;44.97
70690;BME280;58267;51.156;17.044;2022-10-17T05:40:40;101242.23;;;14.47;44.30
70690;BME280;58267;51.156;17.044;2022-10-17T05:43:05;101247.65;;;14.36;44.20
70690;BME280;58267;51.156;17.044;2022-10-17T05:45:31;101248.41;;;14.38;44.15
70690;BME280;58267;51.156;17.044;2022-10-17T05:47:57;101254.00;;;14.42;44.27
70690;BME280;58267;51.156;17.044;2022-10-17T05:50:22;101257.90;;;14.26;44.70
70690;BME280;58267;51.156;17.044;2022-10-17T05:52:47;101261.83;;;14.32;45.08
70690;BME280;58267;51.156;17.044;2022-10-17T05:55:12;101261.69;;;14.63;45.21
70690;BME280;58267;51.156;17.044;2022-10-17T05:57:37;101261.14;;;14.66;45.53
70690;BME280;58267;51.156;17.044;2022-10-17T06:00:04;101264.99;;;14.62;45.58
70690;BME280;58267;51.156;17.044;2022-10-17T06:02:28;101265.92;;;14.70;45.52
70690;BME280;58267;51.156;17.044;2022-10-17T06:04:53;101266.89;;;14.95;45.71
70690;BME280;58267;51.156;17.044;2022-10-17T06:07:19;101267.08;;;14.81;45.74
70690;BME280;58267;51.156;17.044;2022-10-17T06:09:44;101267.01;;;14.74;45.57
70690;BME280;58267;51.156;17.044;2022-10-17T06:12:10;101270.90;;;15.08;45.50
70690;BME280;58267;51.156;17.044;2022-10-17T06:14:36;101267.59;;;15.01;46.05
70690;BME280;58267;51.156;17.044;2022-10-17T06:17:01;101268.73;;;14.67;45.72
70690;BME280;58267;51.156;17.044;2022-10-17T06:19:26;101265.52;;;15.29;45.78
70690;BME280;58267;51.156;17.044;2022-10-17T06:21:52;101266.25;;;15.63;46.03
70690;BME280;58267;51.156;17.044;2022-10-17T06:24:17;101267.21;;;15.68;45.59
70690;BME280;58267;51.156;17.044;2022-10-17T06:26:43;101271.00;;;15.53;45.53
70690;BME280;58267;51.156;17.044;2022-10-17T06:29:09;101272.70;;;16.06;45.77
70690;BME280;58267;51.156;17.044;2022-10-17T06:31:34;101276.21;;;15.65;45.99
70690;BME280;58267;51.156;17.044;2022-10-17T06:33:59;101276.87;;;15.61;46.23
70690;BME280;58267;51.156;17.044;2022-10-17T06:36:24;101278.04;;;15.66;46.39
70690;BME280;58267;51.156;17.044;2022-10-17T06:38:50;101284.07;;;15.89;46.22
70690;BME280;58267;51.156;17.044;2022-10-17T06:41:16;101283.41;;;15.96;46.28
70690;BME280;58267;51.156;17.044;2022-10-17T06:43:42;101282.64;;;16.03;46.24
70690;BME280;58267;51.156;17.044;2022-10-17T06:46:06;101280.91;;;16.27;46.18
70690;BME280;58267;51.156;17.044;2022-10-17T06:48:32;101282.26;;;16.26;46.09
70690;BME280;58267;51.156;17.044;2022-10-17T06:50:58;101284.37;;;16.62;45.68
70690;BME280;58267;51.156;17.044;2022-10-17T06:53:23;101281.78;;;16.41;45.82
70690;BME280;58267;51.156;17.044;2022-10-17T06:55:50;101285.61;;;16.62;45.42
70690;BME280;58267;51.156;17.044;2022-10-17T06:58:14;101291.41;;;16.91;45.32
70690;BME280;58267;51.156;17.044;2022-10-17T07:00:40;101296.48;;;16.93;44.85
70690;BME280;58267;51.156;17.044;2022-10-17T07:03:06;101302.62;;;16.65;45.44
70690;BME280;58267;51.156;17.044;2022-10-17T07:05:31;101306.81;;;16.86;45.22
70690;BME280;58267;51.156;17.044;2022-10-17T07:07:57;101311.21;;;16.90;45.27
70690;BME280;58267;51.156;17.044;2022-10-17T07:10:26;101309.12;;;17.16;45.03
70690;BME280;58267;51.156;17.044;2022-10-17T07:12:50;101310.14;;;16.99;44.50
70690;BME280;58267;51.156;17.044;2022-10-17T07:19:51;101316.17;;;17.29;45.10
70690;BME280;58267;51.156;17.044;2022-10-17T07:22:16;101315.70;;;16.97;44.92
70690;BME280;58267;51.156;17.044;2022-10-17T07:24:42;101316.48;;;17.02;45.04
70690;BME280;58267;51.156;17.044;2022-10-17T07:27:07;101315.38;;;17.37;45.01
70690;BME280;58267;51.156;17.044;2022-10-17T07:29:32;101319.48;;;17.60;44.43
70690;BME280;58267;51.156;17.044;2022-10-17T07:31:58;101319.82;;;17.92;44.55
70690;BME280;58267;51.156;17.044;2022-10-17T07:34:23;101320.30;;;17.63;44.35
70690;BME280;58267;51.156;17.044;2022-10-17T07:36:49;101320.62;;;17.93;43.66
70690;BME280;58267;51.156;17.044;2022-10-17T07:39:14;101321.42;;;17.66;44.00
70690;BME280;58267;51.156;17.044;2022-10-17T07:41:39;101323.13;;;17.94;43.86
70690;BME280;58267;51.156;17.044;2022-10-17T07:44:05;101323.46;;;18.45;43.48
70690;BME280;58267;51.156;17.044;2022-10-17T07:46:31;101327.32;;;18.34;43.48
70690;BME280;58267;51.156;17.044;2022-10-17T07:48:56;101323.56;;;18.52;43.05
70690;BME280;58267;51.156;17.044;2022-10-17T07:51:21;101321.10;;;18.61;43.20
70690;BME280;58267;51.156;17.044;2022-10-17T07:53:47;101325.22;;;18.71;42.88
70690;BME280;58267;51.156;17.044;2022-10-17T07:56:12;101322.42;;;18.68;43.08
70690;BME280;58267;51.156;17.044;2022-10-17T07:58:37;101326.11;;;18.69;42.71
70690;BME280;58267;51.156;17.044;2022-10-17T08:01:04;101324.92;;;18.82;42.40
70690;BME280;58267;51.156;17.044;2022-10-17T08:03:28;101324.39;;;18.95;42.44
70690;BME280;58267;51.156;17.044;2022-10-17T08:05:56;101323.22;;;18.99;42.45
70690;BME280;58267;51.156;17.044;2022-10-17T08:08:19;101322.07;;;18.90;42.47
70690;BME280;58267;51.156;17.044;2022-10-17T08:10:44;101317.58;;;19.01;42.21
70690;BME280;58267;51.156;17.044;2022-10-17T08:13:10;101314.68;;;19.29;42.27
70690;BME280;58267;51.156;17.044;2022-10-17T08:15:36;101317.45;;;19.18;41.93
70690;BME280;58267;51.156;17.044;2022-10-17T08:18:00;101314.07;;;19.30;41.89
70690;BME280;58267;51.156;17.044;2022-10-17T08:20:26;101317.08;;;19.46;41.66
70690;BME280;58267;51.156;17.044;2022-10-17T08:22:51;101318.56;;;19.65;41.63
70690;BME280;58267;51.156;17.044;2022-10-17T08:25:17;101317.72;;;19.69;41.60
70690;BME280;58267;51.156;17.044;2022-10-17T08:27:42;101319.07;;;19.79;41.19
70690;BME280;58267;51.156;17.044;2022-10-17T08:30:09;101318.04;;;20.06;40.94
70690;BME280;58267;51.156;17.044;2022-10-17T08:32:33;101321.11;;;19.70;40.72
70690;BME280;58267;51.156;17.044;2022-10-17T08:34:59;101320.55;;;20.26;40.54
70690;BME280;58267;51.156;17.044;2022-10-17T08:37:24;101318.17;;;20.42;40.71
70690;BME280;58267;51.156;17.044;2022-10-17T08:39:50;101316.42;;;20.01;40.34
70690;BME280;58267;51.156;17.044;2022-10-17T08:42:28;101317.47;;;20.19;40.40
70690;BME280;58267;51.156;17.044;2022-10-17T08:44:48;101315.67;;;20.26;40.67
70690;BME280;58267;51.156;17.044;2022-10-17T08:47:10;101309.49;;;20.30;40.36
70690;BME280;58267;51.156;17.044;2022-10-17T08:49:37;101310.10;;;20.59;40.30
70690;BME280;58267;51.156;17.044;2022-10-17T08:52:03;101310.59;;;20.41;40.73
70690;BME280;58267;51.156;17.044;2022-10-17T08:54:30;101311.64;;;20.63;40.36
70690;BME280;58267;51.156;17.044;2022-10-17T08:56:50;101310.59;;;20.77;40.07
70690;BME280;58267;51.156;17.044;2022-10-17T08:59:17;101311.54;;;20.81;40.01
70690;BME280;58267;51.156;17.044;2022-10-17T09:01:45;101307.76;;;20.78;39.96
70690;BME280;58267;51.156;17.044;2022-10-17T09:04:16;101305.37;;;20.96;39.84
70690;BME280;58267;51.156;17.044;2022-10-17T09:06:33;101306.72;;;20.99;39.92
70690;BME280;58267;51.156;17.044;2022-10-17T09:09:07;101306.28;;;21.12;39.62
70690;BME280;58267;51.156;17.044;2022-10-17T09:11:35;101305.06;;;20.88;39.43
70690;BME280;58267;51.156;17.044;2022-10-17T09:13:58;101304.66;;;21.31;39.13
70690;BME280;58267;51.156;17.044;2022-10-17T09:16:27;101306.75;;;21.36;38.74
70690;BME280;58267;51.156;17.044;2022-10-17T09:18:41;101306.66;;;21.74;38.83
70690;BME280;58267;51.156;17.044;2022-10-17T09:21:16;101307.22;;;21.26;38.99
70690;BME280;58267;51.156;17.044;2022-10-17T09:23:32;101314.02;;;21.48;38.72
70690;BME280;58267;51.156;17.044;2022-10-17T09:25:58;101313.51;;;21.72;38.51
70690;BME280;58267;51.156;17.044;2022-10-17T09:28:25;101309.13;;;21.98;38.11
70690;BME280;58267;51.156;17.044;2022-10-17T09:30:49;101310.62;;;22.18;37.60
70690;BME280;58267;51.156;17.044;2022-10-17T09:33:13;101302.13;;;22.04;37.95
70690;BME280;58267;51.156;17.044;2022-10-17T09:35:37;101301.20;;;21.99;37.52
70690;BME280;58267;51.156;17.044;2022-10-17T09:38:02;101301.37;;;22.02;37.55
70690;BME280;58267;51.156;17.044;2022-10-17T09:40:32;101302.03;;;22.12;37.08
70690;BME280;58267;51.156;17.044;2022-10-17T09:42:53;101302.51;;;22.27;36.38
70690;BME280;58267;51.156;17.044;2022-10-17T09:45:21;101299.17;;;22.39;36.44
70690;BME280;58267;51.156;17.044;2022-10-17T09:47:49;101293.97;;;22.76;35.84
70690;BME280;58267;51.156;17.044;2022-10-17T09:50:16;101293.92;;;22.67;35.61
70690;BME280;58267;51.156;17.044;2022-10-17T09:52:39;101293.21;;;22.92;36.15
70690;BME280;58267;51.156;17.044;2022-10-17T09:55:03;101294.16;;;22.73;36.11
70690;BME280;58267;51.156;17.044;2022-10-17T09:57:26;101298.26;;;22.66;36.73
70690;BME280;58267;51.156;17.044;2022-10-17T09:59:59;101296.94;;;22.37;36.97
70690;BME280;58267;51.156;17.044;2022-10-17T10:02:20;101295.55;;;22.45;36.33
70690;BME280;58267;51.156;17.044;2022-10-17T10:04:51;101290.26;;;23.29;35.51
70690;BME280;58267;51.156;17.044;2022-10-17T10:07:11;101290.33;;;23.18;35.10
70690;BME280;58267;51.156;17.044;2022-10-17T10:09:36;101290.88;;;23.45;34.95
70690;BME280;58267;51.156;17.044;2022-10-17T10:12:04;101289.06;;;23.72;35.23
70690;BME280;58267;51.156;17.044;2022-10-17T10:14:29;101287.50;;;23.46;35.11
70690;BME280;58267;51.156;17.044;2022-10-17T10:16:52;101288.97;;;23.38;34.91
70690;BME280;58267;51.156;17.044;2022-10-17T10:19:23;101288.35;;;23.45;34.83
70690;BME280;58267;51.156;17.044;2022-10-17T10:21:53;101288.06;;;23.73;34.13
70690;BME280;58267;51.156;17.044;2022-10-17T10:24:12;101288.73;;;23.94;34.06
70690;BME280;58267;51.156;17.044;2022-10-17T10:26:38;101289.79;;;24.01;33.16
70690;BME280;58267;51.156;17.044;2022-10-17T10:29:01;101287.96;;;24.09;33.26
70690;BME280;58267;51.156;17.044;2022-10-17T10:31:28;101287.84;;;23.97;32.90
70690;BME280;58267;51.156;17.044;2022-10-17T10:33:51;101285.26;;;24.12;32.78
70690;BME280;58267;51.156;17.044;2022-10-17T10:36:16;101285.99;;;24.19;32.71
70690;BME280;58267;51.156;17.044;2022-10-17T10:38:49;101284.12;;;24.32;32.29
70690;BME280;58267;51.156;17.044;2022-10-17T10:41:09;101284.32;;;24.46;31.81
70690;BME280;58267;51.156;17.044;2022-10-17T10:43:35;101279.84;;;24.51;31.43
70690;BME280;58267;51.156;17.044;2022-10-17T10:45:58;101277.64;;;24.25;31.64
70690;BME280;58267;51.156;17.044;2022-10-17T10:48:24;101279.55;;;24.34;31.50
70690;BME280;58267;51.156;17.044;2022-10-17T10:50:50;101283.72;;;24.44;30.99
70690;BME280;58267;51.156;17.044;2022-10-17T10:53:24;101277.49;;;23.89;30.97
70690;BME280;58267;51.156;17.044;2022-10-17T10:55:44;101269.91;;;24.64;30.66
70690;BME280;58267;51.156;17.044;2022-10-17T10:58:23;101265.15;;;24.47;31.18
70690;BME280;58267;51.156;17.044;2022-10-17T11:00:31;101264.60;;;25.26;30.58
70690;BME280;58267;51.156;17.044;2022-10-17T11:03:03;101263.37;;;25.14;30.62
70690;BME280;58267;51.156;17.044;2022-10-17T11:05:26;101268.16;;;25.08;30.44
70690;BME280;58267;51.156;17.044;2022-10-17T11:07:50;101270.35;;;24.89;29.68
70690;BME280;58267;51.156;17.044;2022-10-17T11:10:15;101268.08;;;24.60;29.85
70690;BME280;58267;51.156;17.044;2022-10-17T11:12:40;101266.79;;;24.60;29.72
70690;BME280;58267;51.156;17.044;2022-10-17T11:15:08;101265.16;;;24.80;29.51
70690;BME280;58267;51.156;17.044;2022-10-17T11:17:33;101260.22;;;25.35;29.21
70690;BME280;58267;51.156;17.044;2022-10-17T11:20:02;101259.55;;;25.96;28.99
70690;BME280;58267;51.156;17.044;2022-10-17T11:22:22;101257.36;;;26.17;28.73
70690;BME280;58267;51.156;17.044;2022-10-17T11:24:48;101255.25;;;25.90;28.70
70690;BME280;58267;51.156;17.044;2022-10-17T11:27:09;101258.57;;;25.88;28.60
70690;BME280;58267;51.156;17.044;2022-10-17T11:29:35;101255.88;;;25.90;28.11
70690;BME280;58267;51.156;17.044;2022-10-17T11:32:05;101254.62;;;26.00;28.47
70690;BME280;58267;51.156;17.044;2022-10-17T11:34:28;101249.90;;;26.32;27.60
70690;BME280;58267;51.156;17.044;2022-10-17T11:36:55;101250.53;;;26.10;27.24
70690;BME280;58267;51.156;17.044;2022-10-17T11:39:19;101246.47;;;26.36;27.50
70690;BME280;58267;51.156;17.044;2022-10-17T11:41:44;101244.44;;;26.21;27.68
70690;BME280;58267;51.156;17.044;2022-10-17T11:44:14;101239.25;;;26.56;27.53
70690;BME280;58267;51.156;17.044;2022-10-17T11:46:34;101238.55;;;27.01;27.36
70690;BME280;58267;51.156;17.044;2022-10-17T11:49:04;101238.79;;;26.83;27.20
70690;BME280;58267;51.156;17.044;2022-10-17T11:51:23;101237.37;;;26.96;27.17
70690;BME280;58267;51.156;17.044;2022-10-17T11:53:53;101234.44;;;27.03;26.88
70690;BME280;58267;51.156;17.044;2022-10-17T11:56:19;101229.09;;;26.65;26.08
70690;BME280;58267;51.156;17.044;2022-10-17T11:58:43;101231.41;;;26.83;26.23
70690;BME280;58267;51.156;17.044;2022-10-17T12:01:13;101229.16;;;26.77;26.31
70690;BME280;58267;51.156;17.044;2022-10-17T12:03:43;101218.26;;;26.99;25.74
70690;BME280;58267;51.156;17.044;2022-10-17T12:06:01;101219.65;;;26.81;25.78
70690;BME280;58267;51.156;17.044;2022-10-17T12:08:27;101216.52;;;27.06;25.77
70690;BME280;58267;51.156;17.044;2022-10-17T12:10:52;101214.49;;;27.24;25.56
70690;BME280;58267;51.156;17.044;2022-10-17T12:15:38;101210.92;;;27.75;25.56
70690;BME280;58267;51.156;17.044;2022-10-17T12:18:03;101209.44;;;27.28;25.36
70690;BME280;58267;51.156;17.044;2022-10-17T12:20:32;101208.45;;;27.71;25.40
70690;BME280;58267;51.156;17.044;2022-10-17T12:22:58;101206.46;;;27.96;25.40
70690;BME280;58267;51.156;17.044;2022-10-17T12:25:22;101209.84;;;27.92;25.49
70690;BME280;58267;51.156;17.044;2022-10-17T12:27:47;101207.45;;;28.10;25.24
70690;BME280;58267;51.156;17.044;2022-10-17T12:30:20;101204.98;;;28.11;25.41
70690;BME280;58267;51.156;17.044;2022-10-17T12:32:37;101207.74;;;28.07;25.59
70690;BME280;58267;51.156;17.044;2022-10-17T12:35:02;101206.44;;;28.15;25.50
70690;BME280;58267;51.156;17.044;2022-10-17T12:39:53;101203.78;;;28.44;25.25
70690;BME280;58267;51.156;17.044;2022-10-17T12:44:44;101199.34;;;28.81;25.33